Time;durP1;ratioP1;P1;durP2;ratioP2;P2;SDS_P1;SDS_P2;PMS_P1;PMS_P2;Temp;Humidity;BMP_temperature;BMP_pressure;BME280_temperature;BME280_humidity;BME280_pressure;Samples;Min_cycle;Max_cycle;Signal;HPM_P1;HPM_P2
2021/04/08 00:02:24;;;;;;;19.00;13.18;;;;;;;7.34;100.00;101080.91;5053541;28;20017;-74
2021/04/08 00:05:12;;;;;;;19.45;14.30;;;;;;;7.63;100.00;101070.53;5053327;28;20044;-74
2021/04/08 00:07:57;;;;;;;18.40;13.20;;;;;;;7.42;100.00;101075.69;5053377;28;20163;-73
2021/04/08 00:10:44;;;;;;;20.58;13.85;;;;;;;7.52;100.00;101078.31;5039730;28;20082;-74
2021/04/08 00:13:30;;;;;;;20.75;14.43;;;;;;;7.45;100.00;101080.94;5052897;28;20037;-73
2021/04/08 00:16:15;;;;;;;21.63;14.65;;;;;;;7.48;100.00;101086.16;5038936;28;20036;-73
2021/04/08 00:19:02;;;;;;;20.08;13.85;;;;;;;7.38;100.00;101097.41;5054237;28;20095;-74
2021/04/08 00:21:47;;;;;;;19.33;13.23;;;;;;;7.27;100.00;101099.16;5053059;28;20049;-73
2021/04/08 00:24:33;;;;;;;20.02;13.90;;;;;;;7.38;100.00;101107.84;5054178;28;20472;-74
2021/04/08 00:27:19;;;;;;;20.23;13.82;;;;;;;7.05;100.00;101108.66;5053519;28;20334;-73
2021/04/08 00:30:05;;;;;;;19.27;13.50;;;;;;;7.53;100.00;101120.91;5053792;28;20025;-73
2021/04/08 00:32:51;;;;;;;19.92;13.50;;;;;;;6.93;100.00;101120.75;5052876;28;20443;-73
2021/04/08 00:35:37;;;;;;;21.40;14.88;;;;;;;7.22;100.00;101122.59;5053023;28;20047;-72
2021/04/08 00:38:23;;;;;;;24.33;15.23;;;;;;;7.07;100.00;101134.72;5053732;28;20040;-73
2021/04/08 00:41:09;;;;;;;23.95;15.10;;;;;;;7.13;100.00;101138.22;5052992;28;20027;-73
2021/04/08 00:43:57;;;;;;;23.27;14.40;;;;;;;6.98;100.00;101139.88;5053559;28;20044;-72
2021/04/08 00:46:42;;;;;;;20.23;14.10;;;;;;;7.36;100.00;101146.09;5038210;28;20021;-73
2021/04/08 00:49:28;;;;;;;20.60;12.93;;;;;;;6.79;100.00;101143.28;5052773;28;20025;-73
2021/04/08 00:52:14;;;;;;;18.13;12.18;;;;;;;7.00;100.00;101153.78;5037906;28;20021;-73
2021/04/08 00:55:00;;;;;;;18.45;12.82;;;;;;;7.19;100.00;101161.66;5053326;28;20061;-73
2021/04/08 00:57:46;;;;;;;17.67;12.15;;;;;;;7.14;100.00;101167.72;5038531;28;20029;-72
2021/04/08 01:00:39;;;;;;;17.92;13.07;;;;;;;7.46;100.00;101160.84;5053274;28;20025;-74
2021/04/08 01:03:25;;;;;;;19.23;13.52;;;;;;;7.72;100.00;101162.63;5055368;28;20032;-73
2021/04/08 01:06:10;;;;;;;16.95;11.73;;;;;;;7.27;100.00;101164.31;5042912;28;20037;-72
2021/04/08 01:08:57;;;;;;;18.55;12.32;;;;;;;7.18;100.00;101165.13;5056859;28;20021;-73
2021/04/08 01:11:43;;;;;;;21.33;13.15;;;;;;;7.21;100.00;101166.88;5056934;28;20021;-72
2021/04/08 01:14:29;;;;;;;18.58;12.90;;;;;;;7.41;100.00;101173.03;5056979;28;20166;-72
2021/04/08 01:17:22;;;;;;;20.73;13.93;;;;;;;7.36;100.00;101180.81;5056972;28;20036;-72
2021/04/08 01:20:14;;;;;;;18.08;13.52;;;;;;;7.47;100.00;101175.66;5056338;28;20036;-72
2021/04/08 01:23:15;;;;;;;18.75;13.15;;;;;;;7.22;100.00;101177.31;5056513;28;20049;-72
2021/04/08 01:26:16;;;;;;;18.65;12.85;;;;;;;7.49;100.00;101186.94;5057117;28;20029;-72
2021/04/08 01:29:22;;;;;;;16.42;12.60;;;;;;;6.84;100.00;101185.84;5055332;28;20071;-73
2021/04/08 01:32:10;;;;;;;18.33;12.50;;;;;;;7.13;100.00;101192.03;5055951;28;20025;-72
2021/04/08 01:34:59;;;;;;;18.90;12.48;;;;;;;6.33;100.00;101207.22;5056605;28;20135;-73
2021/04/08 01:37:52;;;;;;;18.63;13.10;;;;;;;6.37;100.00;101190.75;5056294;28;20033;-73
2021/04/08 01:40:39;;;;;;;17.23;12.55;;;;;;;6.64;100.00;101190.94;5055632;28;20028;-73
2021/04/08 01:43:34;;;;;;;17.02;13.15;;;;;;;6.91;100.00;101192.81;5055620;28;20442;-73
2021/04/08 01:46:22;;;;;;;17.95;12.95;;;;;;;6.66;100.00;101186.59;5056147;28;20024;-73
2021/04/08 01:49:09;;;;;;;16.95;12.45;;;;;;;6.56;100.00;101194.34;5041714;28;20361;-72
2021/04/08 01:51:56;;;;;;;17.30;12.38;;;;;;;6.82;100.00;101204.06;5041187;28;20032;-73
2021/04/08 01:54:53;;;;;;;16.58;11.95;;;;;;;6.57;100.00;101198.69;5056204;28;20043;-73
2021/04/08 01:57:41;;;;;;;18.85;13.15;;;;;;;6.37;100.00;101211.56;5055115;28;20033;-73
2021/04/08 02:00:27;;;;;;;17.17;13.00;;;;;;;6.87;100.00;101206.69;5056045;28;20112;-73
2021/04/08 02:03:15;;;;;;;18.73;12.85;;;;;;;6.41;100.00;101208.13;5040480;28;20028;-73
2021/04/08 02:06:01;;;;;;;20.27;13.60;;;;;;;6.61;100.00;101208.25;5041558;28;20029;-73
2021/04/08 02:08:50;;;;;;;17.92;13.43;;;;;;;6.55;100.00;101211.69;5055769;28;20059;-73
2021/04/08 02:11:39;;;;;;;15.50;12.18;;;;;;;5.90;100.00;101207.72;5055938;28;20033;-72
2021/04/08 02:14:28;;;;;;;17.02;12.43;;;;;;;6.25;100.00;101214.09;5040285;28;20378;-72
2021/04/08 02:17:17;;;;;;;18.33;12.77;;;;;;;5.96;100.00;101209.50;5041594;28;20357;-72
2021/04/08 02:20:14;;;;;;;18.52;12.98;;;;;;;6.10;100.00;101213.09;5056490;28;20107;-72
2021/04/08 02:23:02;;;;;;;17.98;13.15;;;;;;;6.39;100.00;101219.41;5040227;28;20052;-72
2021/04/08 02:25:50;;;;;;;19.27;12.85;;;;;;;6.50;100.00;101212.50;5042153;28;20090;-73
2021/04/08 02:28:38;;;;;;;18.48;13.27;;;;;;;6.52;100.00;101222.09;5054834;28;20029;-73
2021/04/08 02:31:24;;;;;;;18.90;13.40;;;;;;;6.16;100.00;101220.94;5040511;28;20036;-72
2021/04/08 02:34:10;;;;;;;17.50;12.90;;;;;;;5.93;100.00;101223.34;5055461;28;20555;-73
2021/04/08 02:36:56;;;;;;;16.98;12.70;;;;;;;6.04;100.00;101219.13;5055180;28;20422;-73
2021/04/08 02:39:42;;;;;;;17.90;12.98;;;;;;;5.83;100.00;101220.66;5055069;28;20453;-73
2021/04/08 02:42:28;;;;;;;17.13;12.65;;;;;;;6.21;100.00;101219.25;5040585;28;20028;-73
2021/04/08 02:45:14;;;;;;;18.77;12.43;;;;;;;6.02;100.00;101220.81;5055123;28;20025;-73
2021/04/08 02:48:00;;;;;;;19.85;13.48;;;;;;;6.44;100.00;101233.31;5040395;28;20062;-72
2021/04/08 02:50:50;;;;;;;17.67;13.25;;;;;;;5.86;100.00;101220.69;5054511;28;20488;-72
2021/04/08 02:53:54;;;;;;;18.67;13.43;;;;;;;5.84;100.00;101223.28;5054924;28;20032;-72
2021/04/08 02:57:02;;;;;;;20.23;13.27;;;;;;;5.49;100.00;101227.19;5054690;28;20028;-72
2021/04/08 02:59:53;;;;;;;18.80;13.95;;;;;;;5.70;100.00;101227.41;5054359;28;20075;-73
2021/04/08 03:02:42;;;;;;;21.00;13.43;;;;;;;5.32;100.00;101226.13;5054672;28;20017;-72
2021/04/08 03:05:30;;;;;;;17.33;13.27;;;;;;;5.59;100.00;101226.44;5054375;28;20025;-72
2021/04/08 03:08:19;;;;;;;18.95;13.60;;;;;;;5.70;100.00;101234.34;5054813;28;20361;-72
2021/04/08 03:11:08;;;;;;;19.15;13.23;;;;;;;5.53;100.00;101235.88;5054145;28;20453;-72
2021/04/08 03:14:00;;;;;;;19.73;13.75;;;;;;;5.06;100.00;101230.13;5054943;28;20107;-73
2021/04/08 03:16:49;;;;;;;20.17;13.68;;;;;;;4.98;100.00;101227.44;5039963;28;20017;-73
2021/04/08 03:19:39;;;;;;;20.35;14.13;;;;;;;5.47;100.00;101225.44;5053849;28;20029;-72
2021/04/08 03:22:25;;;;;;;19.77;13.80;;;;;;;5.26;100.00;101231.25;5054241;28;20049;-73
2021/04/08 03:25:12;;;;;;;18.92;13.13;;;;;;;5.45;100.00;101230.59;5039891;28;20530;-72
2021/04/08 03:28:01;;;;;;;18.80;13.85;;;;;;;5.11;100.00;101225.88;5053823;28;20032;-73
2021/04/08 03:30:47;;;;;;;21.77;14.35;;;;;;;5.50;100.00;101241.06;5039615;28;20029;-72
2021/04/08 03:33:34;;;;;;;21.30;15.52;;;;;;;5.30;100.00;101253.81;5054019;28;20021;-72
2021/04/08 03:36:21;;;;;;;27.27;16.25;;;;;;;4.92;100.00;101260.25;5054211;28;20468;-72
2021/04/08 03:39:08;;;;;;;22.23;16.17;;;;;;;5.72;100.00;101274.22;5053251;28;20037;-72
2021/04/08 03:41:54;;;;;;;24.35;16.80;;;;;;;5.58;100.00;101283.59;5038668;28;20365;-73
2021/04/08 03:44:40;;;;;;;28.25;18.55;;;;;;;5.44;100.00;101286.88;5053821;28;20035;-73
2021/04/08 03:47:27;;;;;;;29.00;19.10;;;;;;;5.37;100.00;101284.22;5054319;28;20461;-73
2021/04/08 03:50:15;;;;;;;26.20;17.13;;;;;;;5.46;100.00;101293.84;5053427;28;20033;-73
2021/04/08 03:53:03;;;;;;;22.08;15.02;;;;;;;5.44;100.00;101301.63;5053025;28;20040;-73
2021/04/08 03:55:48;;;;;;;25.48;16.60;;;;;;;5.95;100.00;101298.78;5053942;28;20044;-73
2021/04/08 03:58:36;;;;;;;23.20;16.83;;;;;;;5.48;100.00;101288.66;5038631;28;20055;-73
2021/04/08 04:01:22;;;;;;;26.25;17.33;;;;;;;5.74;100.00;101293.31;5053763;28;20032;-72
2021/04/08 04:04:09;;;;;;;21.85;16.27;;;;;;;5.74;100.00;101301.13;5038605;28;20033;-72
2021/04/08 04:06:58;;;;;;;20.65;14.90;;;;;;;5.95;100.00;101310.03;5038903;28;20024;-72
2021/04/08 04:09:44;;;;;;;23.00;15.05;;;;;;;6.08;100.00;101322.34;5052777;28;20509;-72
2021/04/08 04:12:34;;;;;;;21.02;15.18;;;;;;;5.70;100.00;101327.94;5053852;28;20079;-73
2021/04/08 04:15:20;;;;;;;21.33;14.98;;;;;;;5.87;100.00;101332.47;5039948;28;20462;-73
2021/04/08 04:18:08;;;;;;;19.95;14.13;;;;;;;5.86;100.00;101342.91;5053017;28;20131;-72
2021/04/08 04:20:53;;;;;;;21.05;14.15;;;;;;;5.75;100.00;101352.25;5053410;28;20108;-72
2021/04/08 04:23:39;;;;;;;21.25;14.90;;;;;;;5.90;100.00;101352.47;5053407;28;20132;-72
2021/04/08 04:26:25;;;;;;;23.65;15.43;;;;;;;5.76;100.00;101351.38;5052815;28;20036;-73
2021/04/08 04:29:12;;;;;;;26.88;16.65;;;;;;;5.77;100.00;101355.72;5038970;28;20028;-72
2021/04/08 04:31:57;;;;;;;22.42;15.32;;;;;;;5.69;100.00;101367.75;5053087;28;20093;-74
2021/04/08 04:34:43;;;;;;;23.60;16.25;;;;;;;5.52;100.00;101377.97;5052757;28;20029;-72
2021/04/08 04:37:29;;;;;;;21.40;14.32;;;;;;;5.65;100.00;101385.06;5053824;28;20033;-73
2021/04/08 04:40:15;;;;;;;24.52;15.60;;;;;;;4.64;100.00;101393.94;5055949;28;20409;-72
2021/04/08 04:43:01;;;;;;;27.48;16.13;;;;;;;5.20;100.00;101392.22;5057350;28;20032;-73
2021/04/08 04:45:46;;;;;;;27.45;17.60;;;;;;;4.56;100.00;101394.63;5057149;28;20342;-74
2021/04/08 04:48:32;;;;;;;26.98;18.63;;;;;;;5.02;100.00;101400.59;5042587;28;20024;-73
2021/04/08 04:51:18;;;;;;;31.13;18.33;;;;;;;5.56;100.00;101402.25;5042440;28;20372;-72
2021/04/08 04:54:04;;;;;;;26.55;18.23;;;;;;;5.03;100.00;101404.09;5057284;28;20497;-73
2021/04/08 04:56:50;;;;;;;26.77;17.85;;;;;;;5.65;100.00;101392.84;5056212;28;20079;-72
2021/04/08 04:59:36;;;;;;;33.83;20.48;;;;;;;5.66;100.00;101397.19;5057133;28;20035;-73
2021/04/08 05:02:21;;;;;;;26.90;17.85;;;;;;;5.68;100.00;101410.22;5057933;28;20028;-73
2021/04/08 05:05:07;;;;;;;28.63;19.60;;;;;;;5.79;100.00;101404.28;5057223;28;20223;-73
2021/04/08 05:07:53;;;;;;;27.50;18.50;;;;;;;6.17;100.00;101403.06;5057277;28;20483;-72
2021/04/08 05:10:39;;;;;;;27.20;19.10;;;;;;;6.11;100.00;101409.94;5041698;28;20025;-74
2021/04/08 05:13:25;;;;;;;30.10;18.48;;;;;;;6.06;100.00;101422.03;5056764;28;20081;-72
2021/04/08 05:16:10;;;;;;;30.13;19.40;;;;;;;5.86;100.00;101434.75;5056900;28;20044;-73
2021/04/08 05:18:56;;;;;;;27.90;16.55;;;;;;;5.39;100.00;101448.81;5057119;28;20021;-72
2021/04/08 05:21:42;;;;;;;23.65;16.08;;;;;;;5.59;100.00;101460.38;5055677;28;20040;-73
2021/04/08 05:24:27;;;;;;;23.77;16.35;;;;;;;5.90;100.00;101466.88;5042048;28;20472;-73
2021/04/08 05:27:13;;;;;;;27.65;17.15;;;;;;;5.61;100.00;101466.44;5056303;28;20095;-73
2021/04/08 05:30:00;;;;;;;24.15;16.23;;;;;;;5.56;100.00;101470.72;5056639;28;20037;-73
2021/04/08 05:32:46;;;;;;;28.08;17.55;;;;;;;5.48;100.00;101491.38;5055879;28;20044;-73
2021/04/08 05:35:32;;;;;;;31.65;19.63;;;;;;;5.18;100.00;101487.41;5056354;28;20025;-73
2021/04/08 05:38:18;;;;;;;30.58;19.00;;;;;;;5.52;100.00;101494.91;5042684;28;20036;-74
2021/04/08 05:41:03;;;;;;;33.78;21.02;;;;;;;5.18;100.00;101506.47;5040838;28;20025;-74
2021/04/08 05:43:50;;;;;;;33.40;20.90;;;;;;;5.87;100.00;101505.84;5055650;28;20079;-72
2021/04/08 05:46:36;;;;;;;36.70;19.83;;;;;;;5.85;100.00;101504.94;5056034;28;20369;-72
2021/04/08 05:49:21;;;;;;;35.90;19.08;;;;;;;5.42;100.00;101506.00;5040387;28;20037;-73
2021/04/08 05:52:07;;;;;;;35.22;21.52;;;;;;;5.81;100.00;101511.84;5055212;28;20128;-73
2021/04/08 05:54:53;;;;;;;36.85;21.73;;;;;;;5.79;100.00;101508.28;5056018;28;20361;-73
2021/04/08 05:57:39;;;;;;;36.35;21.63;;;;;;;5.72;100.00;101518.59;5056039;28;20114;-72
2021/04/08 06:00:25;;;;;;;34.50;21.35;;;;;;;6.29;100.00;101509.88;5055406;28;20032;-73
2021/04/08 06:03:11;;;;;;;36.92;21.15;;;;;;;6.42;100.00;101521.28;5041459;28;20017;-73
2021/04/08 06:05:56;;;;;;;41.20;22.42;;;;;;;5.17;100.00;101525.50;5055832;28;20099;-72
2021/04/08 06:08:42;;;;;;;37.55;22.58;;;;;;;5.41;100.00;101527.63;5055828;28;20037;-72
2021/04/08 06:11:28;;;;;;;39.60;23.98;;;;;;;5.89;100.00;101522.31;5055457;28;20135;-72
2021/04/08 06:14:14;;;;;;;35.38;22.27;;;;;;;6.44;100.00;101525.69;5055607;28;20028;-72
2021/04/08 06:16:59;;;;;;;40.15;24.00;;;;;;;6.91;100.00;101528.81;5039930;28;20102;-73
2021/04/08 06:19:45;;;;;;;33.47;19.73;;;;;;;5.87;100.00;101531.84;5054910;28;20033;-73
2021/04/08 06:22:33;;;;;;;35.42;20.88;;;;;;;6.37;100.00;101528.19;5055975;28;20041;-73
2021/04/08 06:25:20;;;;;;;32.45;20.63;;;;;;;6.51;100.00;101529.25;5054910;28;20055;-72
2021/04/08 06:28:05;;;;;;;33.17;21.42;;;;;;;6.27;100.00;101529.78;5054314;28;20025;-73
2021/04/08 06:30:51;;;;;;;34.45;20.83;;;;;;;6.31;100.00;101539.38;5040165;28;20040;-72
2021/04/08 06:33:37;;;;;;;29.20;18.52;;;;;;;7.04;100.00;101528.97;5040802;28;20484;-72
2021/04/08 06:36:23;;;;;;;32.40;19.13;;;;;;;7.74;100.00;101530.38;5054742;28;20025;-74
2021/04/08 06:39:09;;;;;;;32.13;19.48;;;;;;;7.75;100.00;101540.84;5054695;28;20028;-72
2021/04/08 06:41:55;;;;;;;28.77;18.42;;;;;;;7.92;100.00;101549.66;5054911;28;20565;-74
2021/04/08 06:44:49;;;;;;;30.60;18.88;;;;;;;8.08;100.00;101545.41;5054497;28;20040;-73
2021/04/08 06:47:43;;;;;;;25.23;17.55;;;;;;;8.70;100.00;101541.38;5055359;28;20021;-73
2021/04/08 06:50:41;;;;;;;24.38;17.15;;;;;;;8.41;100.00;101541.25;5055039;28;20029;-72
2021/04/08 06:53:27;;;;;;;22.50;15.70;;;;;;;8.20;100.00;101551.56;5040038;28;20408;-73
2021/04/08 06:56:13;;;;;;;23.15;15.63;;;;;;;8.88;100.00;101544.91;5055250;28;20103;-73
2021/04/08 06:58:59;;;;;;;25.67;15.90;;;;;;;7.72;100.00;101548.63;5054360;28;20126;-73
2021/04/08 07:01:46;;;;;;;27.95;15.93;;;;;;;7.70;100.00;101539.06;5053929;28;20021;-74
2021/04/08 07:04:32;;;;;;;25.70;15.85;;;;;;;8.34;100.00;101542.09;5054724;28;20459;-72
2021/04/08 07:07:18;;;;;;;25.52;15.77;;;;;;;8.36;100.00;101550.81;5054531;28;20108;-73
2021/04/08 07:10:05;;;;;;;26.98;18.10;;;;;;;8.92;100.00;101551.03;5040220;28;20036;-73
2021/04/08 07:12:55;;;;;;;31.27;18.50;;;;;;;9.08;100.00;101558.00;5054634;28;20047;-74
2021/04/08 07:15:43;;;;;;;30.88;19.85;;;;;;;9.19;100.00;101558.91;5039136;28;20400;-72
2021/04/08 07:18:32;;;;;;;26.63;17.90;;;;;;;8.61;100.00;101560.47;5053968;28;20064;-73
2021/04/08 07:21:17;;;;;;;27.50;17.90;;;;;;;9.28;100.00;101557.16;5053762;28;20032;-72
2021/04/08 07:24:17;;;;;;;26.92;16.92;;;;;;;8.50;100.00;101554.38;5039222;28;20045;-72
2021/04/08 07:27:22;;;;;;;25.52;17.33;;;;;;;8.39;100.00;101563.00;5054213;28;20116;-73
2021/04/08 07:30:10;;;;;;;27.23;17.15;;;;;;;8.54;100.00;101569.19;5054264;28;20025;-72
2021/04/08 07:33:00;;;;;;;25.17;17.20;;;;;;;9.39;100.00;101571.13;5053959;28;20029;-73
2021/04/08 07:35:45;;;;;;;25.45;17.70;;;;;;;9.23;100.00;101576.34;5053327;28;20099;-73
2021/04/08 07:38:47;;;;;;;24.27;15.43;;;;;;;9.68;100.00;101581.59;5053524;28;20060;-72
2021/04/08 07:41:35;;;;;;;22.42;15.80;;;;;;;10.32;100.00;101591.16;5053886;28;20029;-73
2021/04/08 07:44:21;;;;;;;19.67;14.90;;;;;;;9.69;100.00;101586.84;5054152;28;20028;-73
2021/04/08 07:47:31;;;;;;;23.45;15.57;;;;;;;9.98;100.00;101594.69;5053439;28;20029;-72
2021/04/08 07:50:17;;;;;;;27.52;16.48;;;;;;;9.97;100.00;101599.03;5054271;28;20100;-74
2021/04/08 07:53:03;;;;;;;25.58;16.70;;;;;;;9.22;100.00;101599.00;5055231;28;20032;-74
2021/04/08 07:55:49;;;;;;;23.92;16.77;;;;;;;9.65;100.00;101605.16;5055591;28;20024;-73
2021/04/08 07:58:35;;;;;;;24.27;16.40;;;;;;;8.59;100.00;101610.97;5053830;28;20032;-74
2021/04/08 08:01:21;;;;;;;25.73;17.20;;;;;;;9.29;100.00;101605.97;5053121;28;20032;-72
2021/04/08 08:04:19;;;;;;;22.45;15.48;;;;;;;9.31;100.00;101600.75;5038111;28;20029;-73
2021/04/08 08:07:28;;;;;;;24.40;16.90;;;;;;;9.09;100.00;101601.59;5053951;28;20361;-73
2021/04/08 08:10:18;;;;;;;25.20;16.27;;;;;;;9.56;100.00;101603.41;5052916;28;20076;-73
2021/04/08 08:13:04;;;;;;;25.63;16.00;;;;;;;9.53;100.00;101602.53;5053291;28;20041;-74
2021/04/08 08:15:50;;;;;;;22.08;15.23;;;;;;;10.15;100.00;101603.41;5053427;28;20025;-74
2021/04/08 08:18:41;;;;;;;24.13;16.65;;;;;;;10.20;100.00;101606.03;5053871;28;20043;-72
2021/04/08 08:21:27;;;;;;;23.10;16.23;;;;;;;10.03;100.00;101611.25;5038747;28;20025;-73
2021/04/08 08:24:17;;;;;;;19.08;13.82;;;;;;;10.51;100.00;101603.31;5053704;28;20056;-72
2021/04/08 08:27:03;;;;;;;23.23;14.70;;;;;;;10.61;100.00;101605.03;5056028;28;20098;-73
2021/04/08 08:29:58;;;;;;;19.25;14.23;;;;;;;11.40;100.00;101603.75;5053498;28;20041;-73
2021/04/08 08:33:02;;;;;;;20.20;15.20;;;;;;;11.50;100.00;101601.94;5053531;28;20048;-73
2021/04/08 08:35:50;;;;;;;19.20;14.35;;;;;;;11.12;100.00;101599.53;5053887;28;20025;-72
2021/04/08 08:38:36;;;;;;;26.52;16.10;;;;;;;11.21;100.00;101604.72;5038174;28;20025;-73
2021/04/08 08:41:25;;;;;;;19.88;14.80;;;;;;;11.52;100.00;101616.78;5052633;28;20025;-72
2021/04/08 08:44:13;;;;;;;20.25;15.20;;;;;;;11.44;100.00;101615.97;5053461;28;20025;-72
2021/04/08 08:47:22;;;;;;;23.15;15.73;;;;;;;9.95;100.00;101619.13;5053069;28;20060;-72
2021/04/08 08:50:13;;;;;;;21.77;16.08;;;;;;;10.68;100.00;101616.38;5052870;28;20037;-73
2021/04/08 08:53:00;;;;;;;22.17;15.45;;;;;;;10.66;100.00;101619.00;5052989;28;20507;-73
2021/04/08 08:55:46;;;;;;;21.15;16.00;;;;;;;11.00;100.00;101624.94;5038569;28;20040;-72
2021/04/08 08:58:32;;;;;;;22.15;16.02;;;;;;;10.91;100.00;101628.50;5052883;28;20029;-72
2021/04/08 09:01:20;;;;;;;20.05;15.35;;;;;;;11.45;100.00;101625.56;5039268;28;20025;-72
2021/04/08 09:04:06;;;;;;;21.52;14.90;;;;;;;11.11;100.00;101626.66;5052747;28;20024;-73
2021/04/08 09:06:53;;;;;;;20.52;15.82;;;;;;;11.18;100.00;101631.00;5052440;28;20032;-72
2021/04/08 09:09:46;;;;;;;20.05;14.57;;;;;;;11.71;100.00;101642.06;5052651;28;20037;-74
2021/04/08 09:12:32;;;;;;;19.80;14.13;;;;;;;11.64;100.00;101642.97;5052271;28;20029;-74
2021/04/08 09:15:18;;;;;;;20.33;14.73;;;;;;;11.14;100.00;101646.75;5052531;28;20039;-73
2021/04/08 09:18:07;;;;;;;21.77;14.98;;;;;;;10.61;100.00;101648.72;5052003;28;20029;-73
2021/04/08 09:20:54;;;;;;;20.67;14.50;;;;;;;11.11;100.00;101657.25;5038010;28;20039;-73
2021/04/08 09:23:42;;;;;;;24.55;15.45;;;;;;;9.92;100.00;101658.38;5053774;28;20064;-73
2021/04/08 09:26:28;;;;;;;21.58;15.75;;;;;;;10.69;100.00;101650.41;5057141;28;20395;-73
2021/04/08 09:29:47;;;;;;;21.70;16.45;;;;;;;10.97;100.00;101645.97;5055542;28;20078;-74
2021/04/08 09:32:47;;;;;;;23.70;17.42;;;;;;;10.92;100.00;101634.59;5056477;28;20459;-73
2021/04/08 09:35:33;;;;;;;24.80;17.50;;;;;;;11.32;100.00;101639.66;5055444;28;20111;-71
2021/04/08 09:38:20;;;;;;;24.42;17.33;;;;;;;10.86;100.00;101629.41;5055510;28;20061;-72
2021/04/08 09:41:06;;;;;;;25.85;17.98;;;;;;;11.09;100.00;101628.41;5056206;28;20113;-72
2021/04/08 09:43:51;;;;;;;24.42;18.30;;;;;;;10.84;100.00;101629.41;5056018;28;20025;-72
2021/04/08 09:46:40;;;;;;;28.55;18.10;;;;;;;10.63;100.00;101637.34;5041909;28;20035;-73
2021/04/08 09:49:40;;;;;;;25.75;17.58;;;;;;;10.85;100.00;101625.03;5055991;28;20029;-73
2021/04/08 09:52:26;;;;;;;25.00;17.73;;;;;;;11.16;100.00;101635.38;5055575;28;20025;-74
2021/04/08 09:55:31;;;;;;;24.27;17.55;;;;;;;11.27;100.00;101628.31;5056114;28;20464;-73
2021/04/08 09:58:25;;;;;;;25.83;18.30;;;;;;;10.47;100.00;101625.16;5041186;28;20139;-73
2021/04/08 10:01:11;;;;;;;24.45;17.88;;;;;;;11.15;100.00;101627.50;5041256;28;20028;-72
2021/04/08 10:04:08;;;;;;;23.15;16.88;;;;;;;11.15;100.00;101623.16;5055622;28;20025;-75
2021/04/08 10:07:06;;;;;;;27.88;18.80;;;;;;;11.35;100.00;101630.88;5055977;28;20445;-72
2021/04/08 10:09:55;;;;;;;26.23;17.70;;;;;;;11.48;100.00;101635.16;5055149;28;20036;-72
2021/04/08 10:12:41;;;;;;;27.10;19.77;;;;;;;11.52;100.00;101622.03;5055570;28;20040;-73
2021/04/08 10:15:35;;;;;;;27.17;19.15;;;;;;;11.59;100.00;101628.09;5055821;28;20361;-71
2021/04/08 10:18:29;;;;;;;27.45;19.27;;;;;;;11.24;100.00;101630.94;5041041;28;20031;-72
2021/04/08 10:21:17;;;;;;;25.65;17.85;;;;;;;11.59;100.00;101635.97;5055626;28;20365;-72
2021/04/08 10:24:12;;;;;;;24.67;16.70;;;;;;;10.53;100.00;101640.00;5040008;28;20049;-73
2021/04/08 10:26:58;;;;;;;22.35;16.10;;;;;;;11.18;100.00;101641.50;5040544;28;20365;-74
2021/04/08 10:29:46;;;;;;;25.20;16.48;;;;;;;10.26;100.00;101632.19;5040984;28;20025;-74
2021/04/08 10:32:38;;;;;;;24.45;17.17;;;;;;;11.30;100.00;101627.44;5054780;28;20025;-75
2021/04/08 10:35:29;;;;;;;24.52;17.58;;;;;;;11.51;100.00;101636.03;5039259;28;20116;-74
2021/04/08 10:38:14;;;;;;;26.83;19.08;;;;;;;11.06;100.00;101635.44;5055295;28;20059;-74
2021/04/08 10:41:01;;;;;;;27.67;17.80;;;;;;;11.49;100.00;101648.28;5054344;28;20028;-73
2021/04/08 10:43:46;;;;;;;22.83;16.17;;;;;;;11.52;100.00;101639.50;5054565;28;20021;-74
2021/04/08 10:46:33;;;;;;;22.35;16.33;;;;;;;11.81;98.83;101643.72;5054764;28;20036;-74
2021/04/08 10:49:23;;;;;;;22.02;15.77;;;;;;;12.17;97.74;101640.78;5055925;28;20104;-73
2021/04/08 10:52:14;;;;;;;21.60;15.25;;;;;;;11.75;98.12;101638.53;5039802;28;20350;-74
2021/04/08 10:55:02;;;;;;;21.35;15.15;;;;;;;11.98;95.61;101636.56;5054612;28;20025;-74
2021/04/08 10:57:48;;;;;;;19.73;14.05;;;;;;;12.11;94.63;101635.59;5054598;28;20468;-75
2021/04/08 11:00:33;;;;;;;20.25;14.77;;;;;;;13.19;87.28;101623.81;5054473;28;20370;-75
2021/04/08 11:03:20;;;;;;;19.83;13.55;;;;;;;13.16;82.40;101626.53;5054473;28;20025;-75
2021/04/08 11:06:05;;;;;;;17.85;13.68;;;;;;;12.07;86.80;101623.38;5054742;28;20075;-76
2021/04/08 11:08:51;;;;;;;17.67;13.27;;;;;;;12.31;87.02;101631.03;5040678;28;20035;-74
2021/04/08 11:11:37;;;;;;;17.05;12.63;;;;;;;12.65;79.69;101621.88;5039275;28;20025;-71
2021/04/08 11:14:27;;;;;;;14.02;10.32;;;;;;;12.87;69.39;101620.72;5055149;28;20017;-73
2021/04/08 11:17:13;;;;;;;14.40;10.02;;;;;;;12.71;66.50;101613.94;5054611;28;20099;-73
2021/04/08 11:19:59;;;;;;;14.45;10.68;;;;;;;13.19;67.14;101605.41;5054424;28;20029;-75
2021/04/08 11:22:46;;;;;;;14.63;10.60;;;;;;;13.47;67.72;101603.25;5053909;28;20037;-72
2021/04/08 11:25:33;;;;;;;17.80;11.05;;;;;;;12.25;72.59;101610.03;5053745;28;20470;-72
2021/04/08 11:28:21;;;;;;;14.32;10.55;;;;;;;11.97;71.21;101610.34;5054058;28;20469;-72
2021/04/08 11:31:14;;;;;;;14.55;10.50;;;;;;;13.23;69.53;101603.63;5054343;28;20362;-73
2021/04/08 11:34:00;;;;;;;14.25;10.52;;;;;;;12.83;67.50;101597.97;5053201;28;20033;-73
2021/04/08 11:36:53;;;;;;;13.63;10.30;;;;;;;12.02;71.59;101600.66;5054099;28;20095;-73
2021/04/08 11:39:39;;;;;;;15.43;9.77;;;;;;;13.17;67.82;101594.03;5053822;28;20039;-72
2021/04/08 11:42:33;;;;;;;12.80;10.07;;;;;;;13.54;65.23;101591.72;5053520;28;20430;-72
2021/04/08 11:45:30;;;;;;;14.10;9.80;;;;;;;14.54;63.60;101591.72;5053793;28;20056;-72
2021/04/08 11:48:18;;;;;;;15.45;10.15;;;;;;;14.21;62.52;101584.44;5053326;28;20035;-71
2021/04/08 11:51:05;;;;;;;14.18;10.15;;;;;;;13.53;65.29;101590.00;5053350;28;20032;-72
2021/04/08 11:53:52;;;;;;;12.68;9.63;;;;;;;13.04;67.43;101581.97;5053403;28;20048;-71
2021/04/08 11:56:40;;;;;;;13.70;10.43;;;;;;;12.61;67.46;101593.88;5053164;28;20056;-72
2021/04/08 11:59:33;;;;;;;15.25;10.60;;;;;;;13.44;64.32;101591.03;5053030;28;20025;-73
2021/04/08 12:02:30;;;;;;;14.68;10.13;;;;;;;13.53;62.30;101585.59;5053507;28;20039;-73
2021/04/08 12:05:16;;;;;;;12.95;8.77;;;;;;;12.70;64.26;101580.59;5053465;28;20511;-72
2021/04/08 12:08:01;;;;;;;12.43;8.52;;;;;;;13.52;57.93;101567.19;5053124;28;20559;-72
2021/04/08 12:10:56;;;;;;;11.18;8.18;;;;;;;14.15;56.55;101563.47;5053660;28;20109;-74
2021/04/08 12:13:45;;;;;;;15.02;9.38;;;;;;;14.20;58.76;101557.19;5053315;28;20047;-73
2021/04/08 12:16:32;;;;;;;14.48;9.27;;;;;;;13.51;58.87;101562.84;5052777;28;20467;-72
2021/04/08 12:19:22;;;;;;;12.98;7.28;;;;;;;13.96;53.95;101560.28;5053511;28;20048;-72
2021/04/08 12:22:09;;;;;;;9.25;6.60;;;;;;;14.04;49.26;101563.66;5052810;28;20041;-72
2021/04/08 12:25:09;;;;;;;10.10;7.88;;;;;;;13.92;51.89;101566.50;5053571;28;20447;-71
2021/04/08 12:27:58;;;;;;;10.50;6.60;;;;;;;13.94;48.08;101559.44;5053049;28;20389;-72
2021/04/08 12:30:56;;;;;;;8.65;6.53;;;;;;;14.86;47.17;101559.41;5038888;28;20098;-73
2021/04/08 12:33:42;;;;;;;7.22;5.43;;;;;;;14.48;44.85;101563.69;5052999;28;20131;-70
2021/04/08 12:36:30;;;;;;;10.07;6.65;;;;;;;15.12;45.25;101555.28;5053513;28;20464;-72
2021/04/08 12:39:17;;;;;;;8.32;6.10;;;;;;;14.45;45.66;101555.88;5039117;28;20025;-73
2021/04/08 12:42:03;;;;;;;5.00;3.90;;;;;;;13.98;39.19;101571.66;5053115;28;20068;-73
2021/04/08 12:44:49;;;;;;;6.93;5.50;;;;;;;14.11;37.94;101570.53;5053307;28;20104;-71
2021/04/08 12:47:35;;;;;;;6.22;3.40;;;;;;;14.13;33.95;101567.88;5053211;28;20055;-73